createdAt,value
2022-10-23T00:01:43.039Z,13.52
2022-10-23T00:04:17.811Z,18.92
2022-10-23T00:06:45.725Z,18.58
2022-10-23T00:09:16.102Z,15.85
2022-10-23T00:11:44.857Z,20.52
2022-10-23T00:14:12.363Z,14.75
2022-10-23T00:16:39.907Z,16.20
2022-10-23T00:19:07.630Z,16.38
2022-10-23T00:21:34.956Z,15.45
2022-10-23T00:24:02.806Z,17.35
2022-10-23T00:26:30.313Z,22.20
2022-10-23T00:28:57.893Z,21.35
2022-10-23T00:31:27.629Z,18.55
2022-10-23T00:33:57.085Z,20.98
2022-10-23T00:36:24.683Z,17.05
2022-10-23T00:38:52.398Z,18.30
2022-10-23T00:41:28.441Z,22.98
2022-10-23T00:44:30.512Z,21.40
2022-10-23T00:46:59.116Z,15.48
2022-10-23T00:49:28.369Z,18.33
2022-10-23T00:52:04.522Z,20.52
2022-10-23T00:54:39.070Z,16.67
2022-10-23T00:57:11.815Z,17.15
2022-10-23T00:59:39.533Z,19.00
2022-10-23T01:02:07.600Z,16.90
2022-10-23T01:04:35.171Z,21.50
2022-10-23T01:07:20.398Z,16.88
2022-10-23T01:09:58.086Z,13.93
2022-10-23T01:12:43.485Z,18.92
2022-10-23T01:15:32.149Z,16.63
2022-10-23T01:18:17.048Z,16.83
2022-10-23T01:20:55.341Z,16.13
2022-10-23T01:23:58.885Z,16.67
2022-10-23T01:26:41.037Z,13.55
2022-10-23T01:29:25.533Z,12.68
2022-10-23T01:32:16.674Z,16.52
2022-10-23T01:34:52.106Z,16.10
2022-10-23T01:37:27.976Z,20.75
2022-10-23T01:40:03.611Z,13.18
2022-10-23T01:42:38.490Z,18.88
2022-10-23T01:45:16.181Z,11.70
2022-10-23T01:47:45.534Z,15.68
2022-10-23T01:50:18.857Z,13.70
2022-10-23T01:52:48.818Z,15.45
2022-10-23T01:55:17.709Z,17.80
2022-10-23T01:57:48.624Z,15.55
2022-10-23T02:00:18.794Z,15.88
2022-10-23T02:02:54.098Z,17.88
2022-10-23T02:05:29.079Z,18.50
2022-10-23T02:07:58.718Z,19.30
2022-10-23T02:10:47.961Z,16.35
2022-10-23T02:13:43.834Z,16.15
2022-10-23T02:16:26.057Z,17.05
2022-10-23T02:19:18.143Z,15.77
2022-10-23T02:22:10.914Z,17.42
2022-10-23T02:24:57.866Z,24.13
2022-10-23T02:27:35.706Z,16.23
2022-10-23T02:30:12.008Z,17.73
2022-10-23T02:35:12.409Z,13.98
2022-10-23T02:37:40.286Z,14.23
2022-10-23T02:40:10.762Z,12.52
2022-10-23T02:43:08.567Z,17.30
2022-10-23T02:45:54.275Z,20.80
2022-10-23T02:48:25.571Z,16.42
2022-10-23T02:51:03.656Z,17.95
2022-10-23T02:54:02.301Z,17.35
2022-10-23T02:56:53.526Z,15.32
2022-10-23T02:59:37.305Z,15.32
2022-10-23T03:02:21.421Z,18.23
2022-10-23T03:04:49.998Z,20.70
2022-10-23T03:07:19.604Z,20.88
2022-10-23T03:09:47.352Z,20.52
2022-10-23T03:12:14.952Z,14.43
2022-10-23T03:14:42.156Z,15.55
2022-10-23T03:17:10.143Z,17.50
2022-10-23T03:19:37.639Z,17.58
2022-10-23T03:22:05.874Z,18.80
2022-10-23T03:24:33.297Z,15.18
2022-10-23T03:27:00.339Z,20.95
2022-10-23T03:29:32.023Z,17.05
2022-10-23T03:31:58.956Z,21.63
2022-10-23T03:34:26.963Z,19.17
2022-10-23T03:36:54.573Z,20.58
2022-10-23T03:39:22.366Z,15.68
2022-10-23T03:41:49.647Z,20.05
2022-10-23T03:44:17.821Z,15.77
2022-10-23T03:46:46.166Z,25.10
2022-10-23T03:49:13.762Z,22.80
2022-10-23T03:51:44.847Z,25.13
2022-10-23T03:54:12.011Z,24.98
2022-10-23T03:56:39.669Z,22.75
2022-10-23T03:59:08.736Z,20.17
2022-10-23T04:01:36.416Z,24.25
2022-10-23T04:04:03.898Z,24.10
2022-10-23T04:06:31.749Z,27.00
2022-10-23T04:08:59.942Z,26.85
2022-10-23T04:11:27.270Z,29.02
2022-10-23T04:13:54.758Z,22.75
2022-10-23T04:16:24.335Z,23.92
2022-10-23T04:18:52.223Z,34.13
2022-10-23T04:21:20.204Z,24.00
2022-10-23T04:23:47.928Z,25.45
2022-10-23T04:26:17.761Z,34.80
2022-10-23T04:28:45.532Z,18.92
2022-10-23T04:31:12.961Z,20.55
2022-10-23T04:33:44.277Z,16.52
2022-10-23T04:36:25.525Z,15.88
2022-10-23T04:38:53.502Z,19.02
2022-10-23T04:41:20.908Z,21.25
2022-10-23T04:43:48.505Z,19.65
2022-10-23T04:46:16.758Z,30.50
2022-10-23T04:48:47.934Z,25.33
2022-10-23T04:51:27.919Z,20.67
2022-10-23T04:54:03.752Z,11.27
2022-10-23T04:57:09.836Z,15.35
2022-10-23T04:59:54.525Z,13.98
2022-10-23T05:02:23.406Z,11.65
2022-10-23T05:04:52.188Z,17.83
2022-10-23T05:07:51.221Z,13.63
2022-10-23T05:10:24.989Z,15.27
2022-10-23T05:13:02.797Z,19.02
2022-10-23T05:15:30.941Z,12.38
2022-10-23T05:18:10.948Z,14.02
2022-10-23T05:20:38.729Z,15.50
2022-10-23T05:23:11.725Z,19.15
2022-10-23T05:25:39.841Z,18.63
2022-10-23T05:28:18.563Z,13.80
2022-10-23T05:30:46.816Z,22.95
2022-10-23T05:33:14.988Z,15.18
2022-10-23T05:35:44.876Z,21.95
2022-10-23T05:38:15.180Z,31.70
2022-10-23T05:40:43.994Z,24.05
2022-10-23T05:43:17.245Z,13.82
2022-10-23T05:45:51.244Z,27.15
2022-10-23T05:48:33.955Z,21.77
2022-10-23T05:51:25.610Z,23.80
2022-10-23T05:54:05.029Z,17.75
2022-10-23T05:56:35.668Z,18.65
2022-10-23T05:59:09.097Z,21.92
2022-10-23T06:01:49.533Z,15.95
2022-10-23T06:04:29.678Z,25.90
2022-10-23T06:07:24.525Z,22.42
2022-10-23T06:09:53.750Z,25.60
2022-10-23T06:12:22.545Z,21.80
2022-10-23T06:14:51.996Z,27.10
2022-10-23T06:17:23.588Z,26.13
2022-10-23T06:19:51.328Z,20.90
2022-10-23T06:24:56.740Z,18.65
2022-10-23T06:27:27.606Z,15.20
2022-10-23T06:29:56.386Z,17.83
2022-10-23T06:32:24.081Z,17.48
2022-10-23T06:35:09.090Z,16.90
2022-10-23T06:37:36.596Z,19.75
2022-10-23T06:40:12.162Z,13.05
2022-10-23T06:43:08.770Z,13.02
2022-10-23T06:45:55.353Z,15.05
2022-10-23T06:48:48.831Z,11.93
2022-10-23T06:51:25.124Z,20.35
2022-10-23T06:53:53.330Z,16.20
2022-10-23T06:56:39.694Z,13.52
2022-10-23T06:59:09.260Z,15.40
2022-10-23T07:01:38.325Z,11.65
2022-10-23T07:04:07.464Z,12.48
2022-10-23T07:06:35.263Z,13.55
2022-10-23T07:09:03.319Z,13.80
2022-10-23T07:11:49.341Z,13.63
2022-10-23T07:14:17.379Z,14.98
2022-10-23T07:16:48.262Z,11.48
2022-10-23T07:19:15.806Z,23.40
2022-10-23T07:22:02.207Z,23.67
2022-10-23T07:24:49.044Z,15.55
2022-10-23T07:27:38.546Z,11.80
2022-10-23T07:30:08.868Z,15.70
2022-10-23T07:32:44.820Z,16.77
2022-10-23T07:35:33.058Z,19.67
2022-10-23T07:38:09.554Z,16.30
2022-10-23T07:40:42.265Z,21.05
2022-10-23T07:43:11.654Z,12.38
2022-10-23T07:45:39.113Z,14.70
2022-10-23T07:48:15.995Z,20.58
2022-10-23T07:51:10.793Z,33.33
2022-10-23T07:56:31.982Z,15.30
2022-10-23T07:59:19.919Z,17.73
2022-10-23T08:01:55.700Z,18.00
2022-10-23T08:04:31.257Z,16.40
2022-10-23T08:07:13.254Z,13.80
2022-10-23T08:09:46.338Z,14.23
2022-10-23T08:12:13.691Z,17.15
2022-10-23T08:14:41.247Z,22.92
2022-10-23T08:17:10.040Z,26.65
2022-10-23T08:19:56.417Z,23.13
2022-10-23T08:22:27.830Z,15.60
2022-10-23T08:24:57.975Z,16.42
2022-10-23T08:27:26.731Z,20.08
2022-10-23T08:29:54.693Z,15.00
2022-10-23T08:32:22.332Z,19.25
2022-10-23T08:35:05.898Z,17.13
2022-10-23T08:40:03.458Z,14.45
2022-10-23T08:43:20.698Z,21.25
2022-10-23T08:46:08.572Z,18.50
2022-10-23T08:51:57.630Z,17.02
2022-10-23T08:54:33.531Z,17.23
2022-10-23T08:57:15.431Z,13.68
2022-10-23T08:59:54.622Z,17.65
2022-10-23T09:02:32.924Z,17.90
2022-10-23T09:05:00.119Z,15.35
2022-10-23T09:07:46.830Z,26.40
2022-10-23T09:10:51.400Z,16.65
2022-10-23T09:13:36.458Z,15.68
2022-10-23T09:16:16.838Z,18.73
2022-10-23T09:18:47.788Z,18.85
2022-10-23T09:21:15.196Z,24.13
2022-10-23T09:23:42.939Z,18.30
2022-10-23T09:26:16.560Z,17.95
2022-10-23T09:29:02.566Z,17.15
2022-10-23T09:31:30.020Z,21.13
2022-10-23T09:33:59.834Z,18.80
2022-10-23T09:36:29.723Z,18.27
2022-10-23T09:39:00.031Z,19.20
2022-10-23T09:41:34.914Z,18.52
2022-10-23T09:44:08.860Z,19.23
2022-10-23T09:46:38.910Z,17.77
2022-10-23T09:49:07.686Z,19.23
2022-10-23T09:51:35.371Z,19.58
2022-10-23T09:54:03.208Z,20.05
2022-10-23T09:56:42.031Z,19.50
2022-10-23T09:59:13.602Z,21.30
2022-10-23T10:02:20.654Z,25.48
2022-10-23T10:08:05.379Z,19.25
2022-10-23T10:10:41.886Z,16.55
2022-10-23T10:13:38.298Z,19.27
2022-10-23T10:16:23.523Z,17.63
2022-10-23T10:19:30.500Z,16.25
2022-10-23T10:22:40.699Z,17.58
2022-10-23T10:25:20.291Z,15.55
2022-10-23T10:28:04.804Z,19.63
2022-10-23T10:30:57.796Z,20.95
2022-10-23T10:33:35.990Z,21.17
2022-10-23T10:36:29.496Z,18.85
2022-10-23T10:39:09.263Z,20.48
2022-10-23T10:42:13.135Z,20.73
2022-10-23T10:45:00.667Z,16.60
2022-10-23T10:47:47.628Z,19.23
2022-10-23T10:50:47.062Z,19.88
2022-10-23T10:56:14.599Z,17.00
2022-10-23T10:58:51.308Z,17.67
2022-10-23T11:01:56.742Z,18.98
2022-10-23T11:04:41.204Z,18.05
2022-10-23T11:07:13.251Z,18.92
2022-10-23T11:09:42.177Z,16.33
2022-10-23T11:12:28.387Z,19.25
2022-10-23T11:14:56.729Z,16.65
2022-10-23T11:17:29.011Z,16.52
2022-10-23T11:20:10.243Z,14.57
2022-10-23T11:22:43.008Z,15.43
2022-10-23T11:25:44.234Z,15.38
2022-10-23T11:28:39.500Z,14.75
2022-10-23T11:31:21.272Z,16.25
2022-10-23T11:34:03.544Z,19.60
2022-10-23T11:36:51.031Z,14.60
2022-10-23T11:39:18.727Z,12.18
2022-10-23T11:42:09.549Z,15.93
2022-10-23T11:44:47.255Z,15.70
2022-10-23T11:47:40.132Z,16.58
2022-10-23T11:50:12.402Z,14.27
2022-10-23T11:53:15.381Z,14.73
2022-10-23T11:56:00.237Z,15.10
2022-10-23T11:58:40.680Z,16.52
2022-10-23T12:01:24.313Z,12.80
2022-10-23T12:04:00.831Z,14.73
2022-10-23T12:06:33.556Z,17.27
2022-10-23T12:09:18.381Z,11.38
2022-10-23T12:11:49.660Z,11.73
2022-10-23T12:19:14.949Z,14.15
2022-10-23T12:21:42.976Z,11.63
2022-10-23T12:24:15.720Z,13.82
2022-10-23T12:27:21.501Z,11.20
2022-10-23T12:30:02.878Z,12.25
2022-10-23T12:32:57.877Z,14.10
2022-10-23T12:35:35.220Z,13.38
2022-10-23T12:38:26.697Z,13.00
2022-10-23T12:41:11.103Z,12.77
2022-10-23T12:43:39.629Z,10.95
2022-10-23T12:46:22.652Z,11.48
2022-10-23T12:49:03.992Z,14.05
2022-10-23T12:51:35.817Z,13.85
2022-10-23T12:54:04.744Z,9.82
2022-10-23T12:56:39.977Z,11.05
2022-10-23T12:59:18.502Z,12.50
2022-10-23T13:01:48.118Z,13.68
2022-10-23T13:04:35.249Z,11.50
2022-10-23T13:07:03.847Z,11.20
2022-10-23T13:09:40.968Z,11.38
2022-10-23T13:12:33.805Z,11.20
2022-10-23T13:15:03.574Z,9.38
2022-10-23T13:17:59.958Z,10.27
2022-10-23T13:20:34.693Z,11.57
2022-10-23T13:23:19.577Z,9.13
2022-10-23T13:25:58.225Z,8.95
2022-10-23T13:28:29.485Z,15.18
2022-10-23T13:31:10.577Z,7.80
2022-10-23T13:33:40.529Z,10.90
2022-10-23T13:36:13.594Z,12.68
2022-10-23T13:38:42.545Z,8.43
2022-10-23T13:41:38.005Z,10.85
2022-10-23T13:44:07.802Z,11.45
2022-10-23T13:46:35.599Z,9.45
2022-10-23T13:49:05.810Z,10.00
2022-10-23T13:51:42.653Z,10.75
2022-10-23T13:54:18.868Z,8.50
2022-10-23T13:56:47.797Z,10.13
2022-10-23T13:59:15.889Z,8.88
2022-10-23T14:01:44.931Z,9.93
2022-10-23T14:04:15.392Z,7.72
2022-10-23T14:06:42.969Z,7.03
2022-10-23T14:09:15.455Z,9.13
2022-10-23T14:11:43.969Z,9.70
2022-10-23T14:14:11.491Z,8.98
2022-10-23T14:16:41.344Z,7.57
2022-10-23T14:19:10.602Z,8.27
2022-10-23T14:21:37.914Z,6.90
2022-10-23T14:24:10.058Z,8.73
2022-10-23T14:26:38.139Z,11.30
2022-10-23T14:29:10.280Z,6.80
2022-10-23T14:31:43.935Z,9.70
2022-10-23T14:34:15.155Z,10.07
2022-10-23T14:36:49.863Z,6.30
2022-10-23T14:47:54.826Z,9.52
2022-10-23T14:57:04.478Z,7.85
2022-10-23T15:04:14.376Z,9.85
2022-10-23T15:06:41.903Z,7.97
2022-10-23T15:09:09.303Z,7.97
2022-10-23T15:11:36.347Z,7.60
2022-10-23T15:14:03.325Z,10.07
2022-10-23T15:16:30.806Z,8.27
2022-10-23T15:18:57.770Z,11.07
2022-10-23T15:21:24.727Z,9.63
2022-10-23T15:23:52.892Z,9.45
2022-10-23T15:26:22.782Z,10.00
2022-10-23T15:31:29.979Z,11.68
2022-10-23T15:34:00.314Z,11.07
2022-10-23T15:36:27.186Z,11.93
2022-10-23T15:38:54.075Z,9.95
2022-10-23T15:41:27.646Z,12.68
2022-10-23T15:43:54.831Z,9.82
2022-10-23T15:46:21.760Z,11.88
2022-10-23T15:48:48.714Z,10.45
2022-10-23T15:51:15.740Z,11.38
2022-10-23T15:53:43.341Z,7.20
2022-10-23T15:56:10.336Z,12.82
2022-10-23T15:58:37.119Z,11.50
2022-10-23T16:01:06.498Z,9.82
2022-10-23T16:03:38.680Z,8.75
2022-10-23T16:06:13.787Z,12.63
2022-10-23T16:08:41.558Z,9.55
2022-10-23T16:11:18.642Z,11.18
2022-10-23T16:13:46.412Z,9.55
2022-10-23T16:16:13.759Z,7.22
2022-10-23T16:18:41.347Z,11.02
2022-10-23T16:21:15.494Z,14.23
2022-10-23T16:23:42.435Z,8.43
2022-10-23T16:26:09.283Z,7.45
2022-10-23T16:28:37.638Z,9.55
2022-10-23T16:31:19.374Z,7.25
2022-10-23T16:33:48.204Z,10.30
2022-10-23T16:36:15.775Z,9.18
2022-10-23T16:39:03.541Z,8.98
2022-10-23T16:41:48.908Z,9.82
2022-10-23T16:44:18.627Z,9.65
2022-10-23T16:46:57.622Z,11.75
2022-10-23T16:49:24.751Z,10.68
2022-10-23T16:51:51.756Z,9.05
2022-10-23T16:54:18.992Z,10.68
2022-10-23T16:56:46.116Z,9.50
2022-10-23T16:59:13.063Z,10.55
2022-10-23T17:01:40.499Z,13.63
2022-10-23T17:04:08.627Z,11.10
2022-10-23T17:06:36.176Z,10.50
2022-10-23T17:09:05.139Z,12.93
2022-10-23T17:11:35.680Z,15.00
2022-10-23T17:14:15.917Z,11.07
2022-10-23T17:16:48.511Z,9.25
2022-10-23T17:19:39.744Z,14.57
2022-10-23T17:22:10.549Z,12.13
2022-10-23T17:24:41.848Z,8.23
2022-10-23T17:27:08.985Z,10.93
2022-10-23T17:29:36.034Z,8.88
2022-10-23T17:32:03.472Z,18.00
2022-10-23T17:34:30.388Z,9.25
2022-10-23T17:36:57.451Z,11.02
2022-10-23T17:39:26.730Z,9.73
2022-10-23T17:41:54.191Z,11.85
2022-10-23T17:44:21.258Z,10.63
2022-10-23T17:46:55.406Z,7.22
2022-10-23T17:49:23.881Z,11.90
2022-10-23T17:51:53.604Z,8.75
2022-10-23T17:54:20.823Z,9.77
2022-10-23T17:56:47.780Z,9.38
2022-10-23T17:59:18.757Z,8.43
2022-10-23T18:01:48.294Z,11.45
2022-10-23T18:06:47.133Z,9.90
2022-10-23T18:09:14.210Z,8.52
2022-10-23T18:11:45.543Z,9.77
2022-10-23T18:14:16.323Z,8.38
2022-10-23T18:16:43.368Z,9.05
2022-10-23T18:19:10.886Z,11.73
2022-10-23T18:21:38.060Z,10.15
2022-10-23T18:24:05.304Z,11.80
2022-10-23T18:26:39.125Z,16.58
2022-10-23T18:29:10.008Z,13.20
2022-10-23T18:31:38.057Z,15.00
2022-10-23T18:34:07.629Z,19.98
2022-10-23T18:36:38.458Z,14.38
2022-10-23T18:39:08.265Z,8.40
2022-10-23T18:41:40.743Z,9.55
2022-10-23T18:44:08.685Z,10.05
2022-10-23T18:46:36.340Z,8.43
2022-10-23T18:49:03.692Z,12.75
2022-10-23T18:51:32.844Z,12.10
2022-10-23T18:54:09.032Z,12.60
2022-10-23T18:59:05.332Z,7.88
2022-10-23T19:01:33.035Z,9.98
2022-10-23T19:04:02.028Z,9.40
2022-10-23T19:06:33.155Z,8.02
2022-10-23T19:09:00.208Z,8.55
2022-10-23T19:11:28.209Z,11.32
2022-10-23T19:13:55.365Z,11.10
2022-10-23T19:16:22.317Z,7.88
2022-10-23T19:18:57.565Z,10.30
2022-10-23T19:21:31.071Z,12.63
2022-10-23T19:24:04.484Z,8.15
2022-10-23T19:26:35.316Z,7.18
2022-10-23T19:29:03.285Z,6.68
2022-10-23T19:31:30.816Z,5.43
2022-10-23T19:33:57.764Z,8.50
2022-10-23T19:36:24.849Z,9.85
2022-10-23T19:38:51.733Z,7.25
2022-10-23T19:41:18.963Z,7.72
2022-10-23T19:43:45.924Z,5.47
2022-10-23T19:46:12.810Z,8.52
2022-10-23T19:48:44.172Z,6.25
2022-10-23T19:51:12.956Z,6.28
2022-10-23T19:53:41.182Z,6.38
2022-10-23T19:56:10.540Z,6.38
2022-10-23T19:58:38.212Z,8.98
2022-10-23T20:01:11.944Z,8.77
2022-10-23T20:03:41.399Z,9.93
2022-10-23T20:06:16.797Z,7.40
2022-10-23T20:08:57.001Z,7.35
2022-10-23T20:11:49.510Z,6.95
2022-10-23T20:14:25.800Z,8.50
2022-10-23T20:17:02.121Z,8.75
2022-10-23T20:19:38.311Z,10.10
2022-10-23T20:22:11.471Z,5.38
2022-10-23T20:24:42.709Z,6.05
2022-10-23T20:27:18.416Z,5.70
2022-10-23T20:29:48.950Z,10.27
2022-10-23T20:32:16.924Z,7.82
2022-10-23T20:34:44.660Z,7.05
2022-10-23T20:37:19.908Z,8.80
2022-10-23T20:40:02.816Z,6.25
2022-10-23T20:42:33.493Z,7.15
2022-10-23T20:45:22.537Z,7.60
2022-10-23T20:47:59.917Z,6.22
2022-10-23T20:50:43.822Z,7.82
2022-10-23T20:53:40.366Z,6.47
2022-10-23T20:56:10.256Z,6.35
2022-10-23T21:01:43.502Z,6.05
2022-10-23T21:04:18.517Z,5.85
2022-10-23T21:07:15.088Z,8.30
2022-10-23T21:10:11.645Z,7.63
2022-10-23T21:13:23.926Z,6.85
2022-10-23T21:16:04.494Z,8.70
2022-10-23T21:18:46.419Z,7.32
2022-10-23T21:21:23.806Z,7.32
2022-10-23T21:25:31.075Z,9.10
2022-10-23T21:27:50.209Z,6.15
2022-10-23T21:30:32.821Z,6.53
2022-10-23T21:33:26.111Z,7.60
2022-10-23T21:36:21.035Z,6.53
2022-10-23T21:39:25.370Z,7.13
2022-10-23T21:45:58.865Z,6.63
2022-10-23T21:48:48.406Z,9.43
2022-10-23T21:51:44.528Z,8.40
2022-10-23T21:54:22.394Z,7.00
2022-10-23T21:56:54.139Z,9.15
2022-10-23T21:59:27.664Z,8.20
2022-10-23T22:01:58.547Z,6.13
2022-10-23T22:04:25.838Z,7.07
2022-10-23T22:06:53.775Z,9.45
2022-10-23T22:09:22.182Z,7.88
2022-10-23T22:11:50.692Z,6.10
2022-10-23T22:14:18.870Z,7.60
2022-10-23T22:16:46.394Z,8.43
2022-10-23T22:19:15.615Z,8.05
2022-10-23T22:21:43.608Z,7.78
2022-10-23T22:24:11.466Z,5.57
2022-10-23T22:26:41.838Z,8.60
2022-10-23T22:29:12.548Z,6.53
2022-10-23T22:31:44.169Z,10.43
2022-10-23T22:34:25.380Z,6.03
2022-10-23T22:36:55.193Z,8.45
2022-10-23T22:39:23.151Z,5.15
2022-10-23T22:41:50.819Z,5.07
2022-10-23T22:44:19.096Z,7.78
2022-10-23T22:46:47.177Z,5.22
2022-10-23T22:49:14.808Z,6.47
2022-10-23T22:51:42.644Z,6.95
2022-10-23T22:54:10.882Z,5.40
2022-10-23T22:56:38.335Z,5.28
2022-10-23T22:59:05.800Z,5.82
2022-10-23T23:01:42.632Z,4.68
2022-10-23T23:04:36.884Z,5.05
2022-10-23T23:07:00.709Z,6.82
2022-10-23T23:09:27.708Z,7.45
2022-10-23T23:11:55.500Z,6.97
2022-10-23T23:14:24.545Z,4.60
2022-10-23T23:16:55.126Z,5.80
2022-10-23T23:19:23.503Z,5.60
2022-10-23T23:21:51.677Z,6.90
2022-10-23T23:24:19.702Z,5.00
2022-10-23T23:26:47.524Z,6.07
2022-10-23T23:29:15.227Z,9.32
2022-10-23T23:31:43.047Z,4.82
2022-10-23T23:34:10.878Z,10.02
2022-10-23T23:36:38.768Z,6.05
2022-10-23T23:39:06.477Z,8.20
2022-10-23T23:41:34.531Z,4.30
2022-10-23T23:44:02.813Z,5.50
2022-10-23T23:46:30.727Z,5.28
2022-10-23T23:48:58.285Z,6.65
2022-10-23T23:51:26.861Z,6.45
2022-10-23T23:53:56.842Z,4.20
2022-10-23T23:56:24.827Z,4.75
2022-10-23T23:58:52.869Z,6.38
